Time;durP1;ratioP1;P1;durP2;ratioP2;P2;SDS_P1;SDS_P2;PMS_P1;PMS_P2;Temp;Humidity;BMP_temperature;BMP_pressure;BME280_temperature;BME280_humidity;BME280_pressure;Samples;Min_cycle;Max_cycle;Signal;HPM_P1;HPM_P2
2023/05/23 00:03:46;;;;;;;72.13;34.47;;;;;13.30;101449.00;;;;10173674;28;20241;-80
2023/05/23 00:08:48;;;;;;;66.17;35.03;;;;;13.30;101441.00;;;;10173827;28;20304;-80
2023/05/23 00:13:50;;;;;;;60.30;33.13;;;;;13.30;101451.00;;;;10160762;28;20217;-75
2023/05/23 00:18:52;;;;;;;56.57;30.30;;;;;13.30;101459.00;;;;10153507;28;20241;-77
2023/05/23 00:23:53;;;;;;;65.27;33.90;;;;;13.30;101454.00;;;;10171214;28;20725;-78
2023/05/23 00:28:55;;;;;;;65.00;34.07;;;;;13.30;101460.00;;;;10174120;28;20220;-78
2023/05/23 00:33:56;;;;;;;70.80;37.13;;;;;13.40;101467.00;;;;10174373;28;20217;-75
2023/05/23 00:38:58;;;;;;;71.10;35.93;;;;;13.30;101461.00;;;;10173225;28;20319;-79
2023/05/23 00:43:59;;;;;;;71.93;36.33;;;;;13.30;101460.00;;;;10135878;28;22035;-77
2023/05/23 00:49:01;;;;;;;70.00;35.90;;;;;13.30;101462.00;;;;10180792;28;20213;-80
2023/05/23 00:54:04;;;;;;;67.33;36.67;;;;;13.30;101468.00;;;;10202934;28;20330;-80
2023/05/23 00:59:06;;;;;;;73.23;35.03;;;;;13.30;101477.00;;;;10146024;28;20227;-77
2023/05/23 01:04:08;;;;;;;63.53;31.97;;;;;13.30;101471.00;;;;10190841;28;20416;-77
2023/05/23 01:09:10;;;;;;;65.33;33.33;;;;;13.30;101485.00;;;;10187024;28;20209;-77
2023/05/23 01:14:17;;;;;;;55.80;30.90;;;;;13.30;101484.00;;;;10170273;28;20213;-77
2023/05/23 01:19:57;;;;;;;67.33;33.50;;;;;13.20;101485.00;;;;10153461;28;20217;-77
2023/05/23 01:25:09;;;;;;;58.17;32.13;;;;;13.20;101486.00;;;;10150558;28;20619;-77
2023/05/23 01:30:12;;;;;;;64.20;33.40;;;;;13.20;101489.00;;;;10168445;28;20263;-77
2023/05/23 01:35:21;;;;;;;68.50;34.17;;;;;13.30;101495.00;;;;10186365;28;20208;-77
2023/05/23 01:40:23;;;;;;;66.43;32.53;;;;;13.30;101490.00;;;;10188646;28;20295;-77
2023/05/23 01:45:26;;;;;;;71.47;34.43;;;;;13.30;101500.00;;;;10172365;28;20241;-77
2023/05/23 01:50:31;;;;;;;65.93;34.37;;;;;13.40;101501.00;;;;10176672;28;20731;-77
2023/05/23 01:55:33;;;;;;;56.80;34.50;;;;;13.40;101502.00;;;;10194074;28;20216;-77
2023/05/23 02:00:34;;;;;;;62.57;33.67;;;;;13.40;101500.00;;;;10190432;28;20221;-77
2023/05/23 02:05:37;;;;;;;61.17;32.53;;;;;13.50;101495.00;;;;10154545;28;20315;-77
2023/05/23 02:10:38;;;;;;;50.30;31.10;;;;;13.50;101492.00;;;;10138631;28;20401;-77
2023/05/23 02:15:40;;;;;;;52.33;32.07;;;;;13.50;101491.00;;;;10156268;28;20215;-77
2023/05/23 02:20:42;;;;;;;49.63;29.47;;;;;13.60;101492.00;;;;10188507;28;20225;-77
2023/05/23 02:25:43;;;;;;;49.37;29.60;;;;;13.60;101494.00;;;;10173884;28;20217;-77
2023/05/23 02:30:45;;;;;;;47.50;29.43;;;;;13.60;101499.00;;;;10171578;28;20422;-77
2023/05/23 02:35:48;;;;;;;49.50;30.40;;;;;13.50;101503.00;;;;10171497;28;20241;-77
2023/05/23 02:40:52;;;;;;;51.73;32.33;;;;;13.50;101510.00;;;;10171440;28;20223;-77
2023/05/23 02:45:53;;;;;;;50.37;30.10;;;;;13.50;101514.00;;;;10160899;28;22044;-77
2023/05/23 02:50:55;;;;;;;42.43;27.27;;;;;13.40;101512.00;;;;10171201;28;20527;-77
2023/05/23 02:55:57;;;;;;;45.30;26.47;;;;;13.40;101515.00;;;;10154896;28;20243;-77
2023/05/23 03:00:58;;;;;;;43.53;27.57;;;;;13.40;101522.00;;;;10189887;28;20208;-77
2023/05/23 03:06:02;;;;;;;43.10;26.70;;;;;13.40;101520.00;;;;10170277;28;20840;-76
2023/05/23 03:11:03;;;;;;;43.97;24.30;;;;;13.40;101525.00;;;;10152645;28;20252;-77
2023/05/23 03:16:05;;;;;;;40.23;24.07;;;;;13.40;101521.00;;;;10171754;28;21161;-76
2023/05/23 03:21:07;;;;;;;39.83;24.87;;;;;13.40;101524.00;;;;10153725;28;20610;-77
2023/05/23 03:26:08;;;;;;;50.80;26.80;;;;;13.30;101531.00;;;;10171018;28;20522;-77
2023/05/23 03:31:09;;;;;;;45.70;27.27;;;;;13.30;101532.00;;;;10172823;28;21023;-77
2023/05/23 03:36:11;;;;;;;55.17;26.40;;;;;13.30;101541.00;;;;10189581;28;20687;-77
2023/05/23 03:41:12;;;;;;;32.73;20.37;;;;;13.30;101543.00;;;;10152108;28;20784;-77
2023/05/23 03:46:14;;;;;;;31.90;21.33;;;;;13.30;101553.00;;;;10137971;28;20209;-76
2023/05/23 03:51:16;;;;;;;31.37;21.70;;;;;13.30;101550.00;;;;10170590;28;20217;-78
2023/05/23 03:56:17;;;;;;;29.73;20.87;;;;;13.30;101554.00;;;;10155380;28;20699;-77
2023/05/23 04:01:19;;;;;;;30.03;20.23;;;;;13.10;101563.00;;;;10154235;28;20252;-77
2023/05/23 04:06:22;;;;;;;35.70;22.93;;;;;13.10;101566.00;;;;10170678;28;20430;-77
2023/05/23 04:11:23;;;;;;;32.17;20.80;;;;;13.20;101575.00;;;;10171646;28;20252;-77
2023/05/23 04:16:25;;;;;;;24.60;16.53;;;;;13.20;101565.00;;;;10186308;28;20223;-77
2023/05/23 04:21:27;;;;;;;27.90;17.17;;;;;13.20;101557.00;;;;10173448;28;21726;-77
2023/05/23 04:26:38;;;;;;;26.20;16.13;;;;;13.30;101558.00;;;;10173444;28;20224;-77
2023/05/23 04:31:40;;;;;;;23.13;14.17;;;;;13.30;101570.00;;;;10144787;28;21583;-78
2023/05/23 04:36:43;;;;;;;21.93;15.80;;;;;13.30;101563.00;;;;10168730;28;20299;-76
2023/05/23 04:41:45;;;;;;;21.17;14.60;;;;;13.30;101564.00;;;;10179882;28;20224;-77
2023/05/23 04:46:55;;;;;;;21.13;14.50;;;;;13.50;101580.00;;;;10205900;28;21891;-75
2023/05/23 04:52:06;;;;;;;19.77;13.60;;;;;13.60;101575.00;;;;10125976;28;20233;-76
2023/05/23 04:57:12;;;;;;;17.50;11.87;;;;;13.60;101574.00;;;;10157000;28;20305;-77
2023/05/23 05:02:13;;;;;;;16.97;12.23;;;;;13.70;101578.00;;;;10187120;28;20240;-77
2023/05/23 05:07:15;;;;;;;20.90;12.67;;;;;13.70;101581.00;;;;10150826;28;20464;-77
2023/05/23 05:12:17;;;;;;;14.93;12.33;;;;;13.70;101580.00;;;;10173186;28;20217;-77
2023/05/23 05:17:18;;;;;;;18.20;12.90;;;;;13.70;101579.00;;;;10153714;28;20217;-76
2023/05/23 05:22:42;;;;;;;19.00;13.47;;;;;13.60;101592.00;;;;10172957;28;20295;-76
2023/05/23 05:27:46;;;;;;;24.10;17.37;;;;;13.60;101593.00;;;;10183718;28;20217;-76
2023/05/23 05:32:51;;;;;;;23.57;16.03;;;;;13.70;101593.00;;;;10135864;28;20316;-76
2023/05/23 05:37:53;;;;;;;25.67;14.47;;;;;13.80;101604.00;;;;10187576;28;20235;-76
2023/05/23 05:42:54;;;;;;;26.93;15.97;;;;;13.80;101609.00;;;;10167936;28;20268;-77
2023/05/23 05:47:57;;;;;;;31.27;14.63;;;;;13.80;101609.00;;;;10169809;28;20267;-76
2023/05/23 05:53:01;;;;;;;31.77;14.57;;;;;13.70;101617.00;;;;10168481;28;20418;-76
2023/05/23 05:58:03;;;;;;;32.07;15.10;;;;;13.70;101608.00;;;;10152401;28;20307;-76
2023/05/23 06:03:14;;;;;;;27.30;15.53;;;;;13.80;101618.00;;;;10152965;28;20237;-76
2023/05/23 06:08:27;;;;;;;35.03;15.53;;;;;13.90;101623.00;;;;10153647;28;20336;-77
2023/05/23 06:13:29;;;;;;;33.13;15.27;;;;;13.90;101639.00;;;;10145504;28;20212;-75
2023/05/23 06:18:31;;;;;;;37.50;17.73;;;;;13.80;101639.00;;;;10174020;28;21385;-79
2023/05/23 06:23:33;;;;;;;38.63;18.13;;;;;13.80;101648.00;;;;10175389;28;20331;-77
2023/05/23 06:28:34;;;;;;;32.23;17.93;;;;;13.90;101649.00;;;;10199336;28;20217;-77
2023/05/23 06:33:36;;;;;;;29.00;14.87;;;;;13.80;101658.00;;;;10161050;28;20221;-77
2023/05/23 06:38:37;;;;;;;29.83;15.10;;;;;13.90;101655.00;;;;10166319;28;20212;-76
2023/05/23 06:43:40;;;;;;;26.20;11.87;;;;;14.30;101666.00;;;;10193694;28;20228;-78
2023/05/23 06:48:48;;;;;;;14.77;10.17;;;;;14.60;101666.00;;;;10170405;28;20213;-76
2023/05/23 06:53:55;;;;;;;23.00;10.93;;;;;14.90;101668.00;;;;10194163;28;20236;-76
2023/05/23 06:58:57;;;;;;;17.23;9.40;;;;;15.00;101668.00;;;;10179194;28;20216;-78
2023/05/23 07:03:58;;;;;;;16.93;9.33;;;;;15.20;101662.00;;;;10174579;28;20275;-77
2023/05/23 07:09:00;;;;;;;17.33;9.13;;;;;16.80;101658.00;;;;10185739;28;20209;-77
2023/05/23 07:14:02;;;;;;;15.18;8.18;;;;;17.30;101666.00;;;;10176404;28;20228;-77
2023/05/23 07:19:11;;;;;;;17.60;7.90;;;;;16.80;101666.00;;;;10157363;28;20211;-78
2023/05/23 07:24:19;;;;;;;12.68;7.45;;;;;16.10;101671.00;;;;10164399;28;20890;-79
2023/05/23 07:29:21;;;;;;;14.30;7.70;;;;;16.20;101685.00;;;;10190630;28;20378;-77
2023/05/23 07:34:27;;;;;;;19.25;7.43;;;;;16.40;101686.00;;;;10179582;28;20267;-78
2023/05/23 07:39:31;;;;;;;13.35;6.47;;;;;16.50;101676.00;;;;10188658;28;20213;-77
2023/05/23 07:44:34;;;;;;;21.30;6.25;;;;;16.90;101676.00;;;;10173190;28;20345;-78
2023/05/23 07:49:37;;;;;;;14.63;5.57;;;;;17.30;101680.00;;;;10177475;28;20209;-78
2023/05/23 07:54:39;;;;;;;10.18;5.15;;;;;19.10;101673.00;;;;10170884;28;20217;-78
2023/05/23 07:59:42;;;;;;;12.95;5.80;;;;;20.90;101660.00;;;;10211128;28;20213;-79
2023/05/23 08:04:44;;;;;;;12.20;6.30;;;;;20.00;101676.00;;;;10175859;28;20309;-78
2023/05/23 08:09:46;;;;;;;14.80;6.43;;;;;18.30;101676.00;;;;10181719;28;20939;-77
2023/05/23 08:14:52;;;;;;;9.95;5.82;;;;;17.70;101677.00;;;;10170085;28;20631;-77
2023/05/23 08:20:00;;;;;;;11.45;6.50;;;;;19.90;101673.00;;;;10168561;28;20753;-78
2023/05/23 08:25:03;;;;;;;12.73;6.07;;;;;20.00;101682.00;;;;10180148;28;20229;-77
2023/05/23 08:30:08;;;;;;;12.73;6.45;;;;;22.20;101682.00;;;;10167170;28;21337;-78
2023/05/23 08:35:10;;;;;;;18.52;8.05;;;;;20.90;101682.00;;;;10148171;28;20854;-78
2023/05/23 08:40:19;;;;;;;16.10;6.85;;;;;19.20;101683.00;;;;10154113;28;20339;-78
2023/05/23 08:45:29;;;;;;;12.52;6.85;;;;;20.30;101696.00;;;;10152078;28;20252;-77
2023/05/23 08:50:32;;;;;;;15.90;6.78;;;;;20.30;101694.00;;;;10193229;28;20324;-77
2023/05/23 08:55:34;;;;;;;14.02;6.10;;;;;20.10;101703.00;;;;10172218;28;20229;-78
2023/05/23 09:00:37;;;;;;;12.25;5.72;;;;;20.40;101696.00;;;;10164613;28;20303;-77
2023/05/23 09:05:40;;;;;;;14.85;6.70;;;;;20.60;101702.00;;;;10170334;28;20232;-77
2023/05/23 09:10:43;;;;;;;10.77;5.60;;;;;20.70;101688.00;;;;10165010;28;20264;-77
2023/05/23 09:15:58;;;;;;;12.43;5.55;;;;;20.10;101702.00;;;;10150724;28;20216;-77
2023/05/23 09:21:03;;;;;;;12.77;5.60;;;;;21.00;101696.00;;;;10167062;28;22006;-78
2023/05/23 09:26:12;;;;;;;9.57;4.57;;;;;20.90;101708.00;;;;10173330;28;20213;-77
2023/05/23 09:31:15;;;;;;;9.25;4.60;;;;;20.30;101709.00;;;;10170780;28;20221;-77
2023/05/23 09:36:17;;;;;;;12.48;4.75;;;;;19.90;101709.00;;;;10185398;28;20220;-77
2023/05/23 09:41:20;;;;;;;11.00;5.85;;;;;20.00;101713.00;;;;10188826;28;20224;-77
2023/05/23 09:46:22;;;;;;;10.55;5.40;;;;;19.50;101722.00;;;;10200112;28;20256;-81
2023/05/23 09:51:23;;;;;;;14.00;6.65;;;;;19.50;101727.00;;;;10215921;28;20691;-76
2023/05/23 09:56:27;;;;;;;31.38;23.83;;;;;19.40;101724.00;;;;10184655;28;20213;-77
2023/05/23 10:01:30;;;;;;;8.48;4.93;;;;;19.80;101726.00;;;;10165106;28;20267;-78
2023/05/23 10:06:43;;;;;;;9.07;5.13;;;;;19.60;101725.00;;;;10193091;28;20228;-76
2023/05/23 10:12:26;;;;;;;7.20;3.58;;;;;20.10;101726.00;;;;10169938;28;21952;-74
2023/05/23 10:18:01;;;;;;;9.57;3.42;;;;;20.40;101736.00;;;;10175251;28;21533;-75
2023/05/23 10:23:04;;;;;;;11.52;3.78;;;;;20.70;101732.00;;;;10163573;28;21099;-76
2023/05/23 10:28:05;;;;;;;7.47;3.22;;;;;21.10;101732.00;;;;10195960;28;20347;-77
2023/05/23 10:33:08;;;;;;;9.82;3.55;;;;;21.60;101729.00;;;;10203078;28;21901;-77
2023/05/23 10:38:15;;;;;;;8.27;3.55;;;;;23.00;101721.00;;;;10187150;28;20300;-77
2023/05/23 10:44:06;;;;;;;9.45;3.00;;;;;21.30;101723.00;;;;10189431;28;20239;-76
2023/05/23 10:49:10;;;;;;;7.43;2.88;;;;;20.70;101728.00;;;;10174555;28;21851;-72
2023/05/23 10:54:11;;;;;;;6.75;3.38;;;;;19.80;101724.00;;;;10209826;28;20233;-74
2023/05/23 10:59:23;;;;;;;9.68;4.10;;;;;21.30;101714.00;;;;10210823;28;20232;-73
2023/05/23 11:04:26;;;;;;;7.57;2.90;;;;;22.60;101716.00;;;;10193352;28;20244;-73
2023/05/23 11:09:27;;;;;;;5.80;2.90;;;;;21.40;101710.00;;;;10204455;28;20221;-74
2023/05/23 11:14:32;;;;;;;13.57;6.30;;;;;22.60;101706.00;;;;10209985;28;20215;-73
2023/05/23 11:19:49;;;;;;;7.75;3.15;;;;;22.40;101711.00;;;;10449400;23;20371;31
2023/05/23 11:31:07;;;;;;;6.28;2.50;;;;;20.50;101713.00;;;;4034313;23;20474;-75
2023/05/23 11:36:10;;;;;;;13.63;3.22;;;;;20.80;101707.00;;;;10206838;28;20298;-74
2023/05/23 11:41:11;;;;;;;8.38;2.90;;;;;20.40;101720.00;;;;10224675;28;20217;-73
2023/05/23 11:46:12;;;;;;;10.90;3.03;;;;;20.80;101719.00;;;;10228406;28;20215;-74
2023/05/23 11:51:14;;;;;;;9.38;2.90;;;;;22.00;101714.00;;;;10214088;28;20307;-72
2023/05/23 11:56:16;;;;;;;11.88;3.58;;;;;21.70;101723.00;;;;10211510;28;21311;-74
2023/05/23 12:01:18;;;;;;;6.95;2.80;;;;;21.00;101711.00;;;;10190154;28;20592;-74
2023/05/23 12:06:20;;;;;;;9.93;2.90;;;;;20.70;101704.00;;;;10217911;28;20252;-74
2023/05/23 12:11:23;;;;;;;9.13;2.83;;;;;22.30;101705.00;;;;10223551;28;20240;-73
2023/05/23 12:16:28;;;;;;;12.35;3.00;;;;;21.40;101711.00;;;;10214405;28;21393;-74
2023/05/23 12:21:41;;;;;;;7.63;3.45;;;;;21.90;101714.00;;;;10223986;28;20217;-73
2023/05/23 12:26:53;;;;;;;12.52;3.40;;;;;23.00;101715.00;;;;10203532;28;20232;-75
2023/05/23 12:31:57;;;;;;;8.93;3.50;;;;;22.80;101728.00;;;;10225957;28;21904;-72
2023/05/23 12:37:03;;;;;;;9.73;3.75;;;;;23.70;101712.00;;;;10223905;28;20323;-72
2023/05/23 12:42:20;;;;;;;8.85;3.58;;;;;24.40;101711.00;;;;10185968;28;20310;-75
2023/05/23 12:47:21;;;;;;;8.85;3.13;;;;;26.50;101722.00;;;;10221905;28;20271;-74
2023/05/23 12:52:23;;;;;;;12.73;3.92;;;;;25.00;101721.00;;;;10203165;28;20248;-74
2023/05/23 12:57:25;;;;;;;8.40;2.92;;;;;24.20;101728.00;;;;10177440;28;20235;-75
2023/05/23 13:02:27;;;;;;;6.20;3.13;;;;;23.60;101712.00;;;;10181970;28;20314;-74
2023/05/23 13:07:28;;;;;;;7.55;3.17;;;;;22.80;101728.00;;;;10189736;28;20228;-74
2023/05/23 13:12:30;;;;;;;11.15;3.88;;;;;24.10;101715.00;;;;10204501;28;20299;-74
2023/05/23 13:17:31;;;;;;;15.23;4.47;;;;;23.90;101718.00;;;;10192859;28;20294;-74
2023/05/23 13:22:33;;;;;;;12.68;3.47;;;;;25.30;101709.00;;;;10182339;28;20314;-75
2023/05/23 13:27:34;;;;;;;11.13;3.28;;;;;26.40;101699.00;;;;10200123;28;20216;-75
2023/05/23 13:32:35;;;;;;;12.77;3.90;;;;;24.80;101701.00;;;;10186866;28;20316;-75
2023/05/23 13:37:37;;;;;;;12.57;4.00;;;;;25.40;101698.00;;;;10208582;28;20216;-75
2023/05/23 13:42:39;;;;;;;16.20;4.03;;;;;25.80;101692.00;;;;10210857;28;20236;-75
2023/05/23 13:47:40;;;;;;;18.27;3.83;;;;;23.40;101701.00;;;;10193223;28;20231;-75
2023/05/23 13:52:41;;;;;;;12.88;4.35;;;;;25.10;101691.00;;;;10210445;28;20670;-75
2023/05/23 13:57:48;;;;;;;11.18;3.80;;;;;24.50;101697.00;;;;10210310;28;20816;-76
2023/05/23 14:02:49;;;;;;;12.57;3.17;;;;;23.30;101703.00;;;;10210410;28;20339;-74
2023/05/23 14:07:52;;;;;;;9.00;3.72;;;;;21.50;101697.00;;;;10209705;28;20220;-74
2023/05/23 14:12:53;;;;;;;9.65;3.35;;;;;23.70;101684.00;;;;10211156;28;20221;-74
2023/05/23 14:17:55;;;;;;;11.32;3.20;;;;;25.30;101687.00;;;;10203975;28;20939;-76
2023/05/23 14:22:57;;;;;;;12.80;3.40;;;;;25.40;101693.00;;;;10210394;28;20290;-75
2023/05/23 14:27:58;;;;;;;10.07;3.00;;;;;24.30;101698.00;;;;10210736;28;20217;-74
2023/05/23 14:33:00;;;;;;;10.90;2.92;;;;;24.00;101699.00;;;;10201079;28;20216;-75
2023/05/23 14:38:01;;;;;;;9.13;3.20;;;;;25.00;101682.00;;;;10192689;28;20774;-76
2023/05/23 14:43:02;;;;;;;12.70;2.95;;;;;25.30;101701.00;;;;10207971;28;20291;-76
2023/05/23 14:48:04;;;;;;;10.02;3.22;;;;;25.30;101689.00;;;;10200758;28;20968;-75
2023/05/23 14:53:06;;;;;;;9.88;3.25;;;;;25.10;101687.00;;;;10205517;28;21485;-75
2023/05/23 14:58:07;;;;;;;7.47;2.83;;;;;26.80;101672.00;;;;10205228;28;20204;-75
2023/05/23 15:03:09;;;;;;;10.20;3.30;;;;;26.50;101673.00;;;;10208995;28;21792;-75
2023/05/23 15:08:11;;;;;;;12.13;3.20;;;;;25.70;101683.00;;;;10192449;28;20244;-75
2023/05/23 15:13:12;;;;;;;12.30;3.35;;;;;27.00;101692.00;;;;10208260;28;20259;-76
2023/05/23 15:18:13;;;;;;;8.82;2.75;;;;;26.00;101688.00;;;;10446079;23;20241;-77
2023/05/23 15:23:32;;;;;;;10.07;3.13;;;;;24.70;101678.00;;;;10158064;28;21371;-78
2023/05/23 15:34:18;;;;;;;8.82;2.65;;;;;23.30;101674.00;;;;8509640;23;20294;-77
2023/05/23 15:39:21;;;;;;;9.52;2.92;;;;;23.80;101677.00;;;;10227403;28;20240;-77
2023/05/23 15:44:22;;;;;;;8.13;2.47;;;;;23.10;101675.00;;;;10211993;28;20240;-77
2023/05/23 15:49:23;;;;;;;12.10;3.00;;;;;22.10;101676.00;;;;10213512;28;20215;-78
2023/05/23 15:54:28;;;;;;;10.88;2.65;;;;;21.90;101679.00;;;;10198340;28;20221;-79
2023/05/23 15:59:32;;;;;;;14.02;3.03;;;;;21.50;101669.00;;;;10207822;28;20350;-77
2023/05/23 16:04:34;;;;;;;10.00;3.20;;;;;20.20;101670.00;;;;10212031;28;20871;-79
2023/05/23 16:09:36;;;;;;;12.93;3.13;;;;;19.60;101670.00;;;;10212227;28;20249;-78
2023/05/23 16:14:37;;;;;;;15.20;3.63;;;;;19.10;101662.00;;;;10212566;28;20216;-77
2023/05/23 16:19:38;;;;;;;11.02;3.17;;;;;18.90;101677.00;;;;10196540;28;20220;-78
2023/05/23 16:24:40;;;;;;;11.35;3.30;;;;;19.10;101675.00;;;;10194231;28;20820;-79
2023/05/23 16:29:41;;;;;;;16.08;2.78;;;;;19.30;101667.00;;;;10193817;28;21804;-77
2023/05/23 16:34:43;;;;;;;12.88;3.08;;;;;19.00;101681.00;;;;10212400;28;20214;-78
2023/05/23 16:39:50;;;;;;;9.13;2.40;;;;;19.10;101670.00;;;;10210305;28;20217;-76
2023/05/23 16:44:52;;;;;;;10.95;2.95;;;;;19.30;101661.00;;;;10180700;28;20258;-77
2023/05/23 16:49:53;;;;;;;10.13;3.25;;;;;19.40;101674.00;;;;10207013;28;20231;-77
2023/05/23 16:54:54;;;;;;;8.93;3.72;;;;;19.30;101667.00;;;;10155482;28;20221;-77
2023/05/23 16:59:56;;;;;;;7.60;3.00;;;;;19.10;101673.00;;;;10155969;28;21915;-78
2023/05/23 17:04:58;;;;;;;11.15;3.45;;;;;18.60;101681.00;;;;10164909;28;20319;-76
2023/05/23 17:10:00;;;;;;;14.75;2.97;;;;;18.10;101682.00;;;;10156167;28;20249;-80
2023/05/23 17:15:02;;;;;;;7.90;2.83;;;;;18.10;101684.00;;;;10181633;28;21569;-79
2023/05/23 17:20:04;;;;;;;10.38;3.03;;;;;18.20;101677.00;;;;10163056;28;20904;-80
2023/05/23 17:25:06;;;;;;;15.48;2.80;;;;;18.00;101686.00;;;;10181988;28;22284;-79
2023/05/23 17:30:09;;;;;;;12.30;2.47;;;;;18.00;101684.00;;;;10166041;28;20218;-80
2023/05/23 17:35:10;;;;;;;6.63;2.60;;;;;17.70;101682.00;;;;10182569;28;20320;-81
2023/05/23 17:40:12;;;;;;;7.82;2.95;;;;;17.40;101684.00;;;;10183359;28;20230;-79
2023/05/23 17:45:14;;;;;;;6.82;2.40;;;;;17.40;101687.00;;;;10180657;28;20228;-80
2023/05/23 17:50:15;;;;;;;8.85;2.38;;;;;17.20;101690.00;;;;10163753;28;20347;-80
2023/05/23 17:55:17;;;;;;;11.40;2.85;;;;;16.80;101700.00;;;;10182253;28;21796;-81
2023/05/23 18:00:19;;;;;;;11.40;2.90;;;;;16.60;101702.00;;;;10166453;28;20221;-82
2023/05/23 18:05:22;;;;;;;12.73;2.83;;;;;16.50;101709.00;;;;10166221;28;20513;-80
2023/05/23 18:10:23;;;;;;;11.15;3.30;;;;;16.40;101699.00;;;;10166390;28;20519;-80
2023/05/23 18:15:25;;;;;;;7.68;3.03;;;;;16.50;101711.00;;;;10180546;28;20217;-79
2023/05/23 18:20:26;;;;;;;9.70;2.55;;;;;16.50;101721.00;;;;10178749;28;20221;-80
2023/05/23 18:25:28;;;;;;;15.18;2.85;;;;;16.40;101720.00;;;;10172203;28;20238;-79
2023/05/23 18:30:29;;;;;;;10.45;2.90;;;;;16.10;101725.00;;;;10189691;28;20228;-79
2023/05/23 18:35:31;;;;;;;13.35;2.88;;;;;15.90;101724.00;;;;10175274;28;20253;-79
2023/05/23 18:40:32;;;;;;;16.13;3.42;;;;;15.80;101730.00;;;;10187080;28;20220;-80
2023/05/23 18:45:33;;;;;;;12.85;2.70;;;;;15.50;101740.00;;;;10184219;28;20367;-79
2023/05/23 18:50:35;;;;;;;15.20;3.63;;;;;15.30;101739.00;;;;10196596;28;20279;-78
2023/05/23 18:55:36;;;;;;;14.85;2.63;;;;;15.00;101742.00;;;;10143034;28;20537;-78
2023/05/23 19:00:37;;;;;;;14.05;2.60;;;;;14.80;101744.00;;;;10174787;28;20220;-78
2023/05/23 19:05:39;;;;;;;11.17;2.77;;;;;14.60;101760.00;;;;10174636;28;20273;-77
2023/05/23 19:10:41;;;;;;;11.27;2.43;;;;;14.40;101769.00;;;;10148104;28;20217;-80
2023/05/23 19:15:44;;;;;;;8.77;3.17;;;;;14.20;101779.00;;;;10175164;28;20294;-79
2023/05/23 19:20:50;;;;;;;10.97;2.80;;;;;14.00;101786.00;;;;10159480;28;20214;-78
2023/05/23 19:25:51;;;;;;;11.37;3.07;;;;;13.80;101782.00;;;;10151575;28;20236;-78
2023/05/23 19:30:53;;;;;;;11.53;3.20;;;;;13.60;101786.00;;;;10149870;28;20574;-78
2023/05/23 19:35:54;;;;;;;18.67;3.00;;;;;13.40;101784.00;;;;10138616;28;21318;-80
2023/05/23 19:40:55;;;;;;;9.50;2.70;;;;;13.20;101793.00;;;;10176551;28;20905;-77
2023/05/23 19:45:57;;;;;;;16.63;3.60;;;;;13.10;101801.00;;;;10150437;28;20235;-76
2023/05/23 19:50:58;;;;;;;15.43;2.80;;;;;12.90;101810.00;;;;10153518;28;20592;-76
2023/05/23 19:56:02;;;;;;;13.87;2.57;;;;;12.80;101803.00;;;;10151864;28;21247;-76
2023/05/23 20:01:03;;;;;;;8.33;2.30;;;;;12.70;101816.00;;;;10150558;28;21800;-77
2023/05/23 20:06:05;;;;;;;9.47;2.60;;;;;12.60;101824.00;;;;10165656;28;20232;-78
2023/05/23 20:11:07;;;;;;;12.10;2.93;;;;;12.40;101828.00;;;;10139260;28;20232;-78
2023/05/23 20:16:08;;;;;;;13.57;4.10;;;;;12.30;101824.00;;;;10140575;28;20595;-78
2023/05/23 20:21:10;;;;;;;9.10;2.40;;;;;12.20;101845.00;;;;10140843;28;20261;-78
2023/05/23 20:26:11;;;;;;;13.83;2.70;;;;;12.10;101847.00;;;;10173715;28;20271;-78
2023/05/23 20:31:14;;;;;;;11.47;2.67;;;;;12.00;101847.00;;;;10157532;28;20240;-76
2023/05/23 20:36:18;;;;;;;12.60;3.03;;;;;11.90;101847.00;;;;10158971;28;20255;-76
2023/05/23 20:41:20;;;;;;;6.73;2.20;;;;;11.80;101863.00;;;;10161782;28;20732;-80
2023/05/23 20:46:22;;;;;;;11.30;2.60;;;;;11.70;101877.00;;;;10184182;28;20566;-79
2023/05/23 20:51:23;;;;;;;12.57;2.70;;;;;11.60;101876.00;;;;10180343;28;20327;-77
2023/05/23 20:56:25;;;;;;;13.80;2.80;;;;;11.50;101881.00;;;;10166123;28;20217;-77
2023/05/23 21:01:27;;;;;;;13.07;2.90;;;;;11.40;101886.00;;;;10164704;28;20304;-78
2023/05/23 21:06:29;;;;;;;8.63;2.27;;;;;11.40;101903.00;;;;10155690;28;20351;-77
2023/05/23 21:11:30;;;;;;;12.60;2.50;;;;;11.30;101896.00;;;;10157012;28;20230;-77
2023/05/23 21:16:31;;;;;;;12.03;2.70;;;;;11.20;101902.00;;;;10148776;28;20679;-78
2023/05/23 21:21:34;;;;;;;10.33;2.70;;;;;11.10;101901.00;;;;10174346;28;20236;-78
2023/05/23 21:26:36;;;;;;;14.37;3.03;;;;;11.00;101893.00;;;;10155986;28;20853;-77
2023/05/23 21:31:37;;;;;;;11.50;3.37;;;;;10.90;101895.00;;;;10170494;28;20273;-78
2023/05/23 21:36:43;;;;;;;14.73;2.80;;;;;10.80;101885.00;;;;10157829;28;20221;-78
2023/05/23 21:41:44;;;;;;;11.83;2.67;;;;;10.70;101883.00;;;;10148258;28;21424;-78
2023/05/23 21:46:45;;;;;;;12.77;2.80;;;;;10.60;101897.00;;;;10165513;28;20237;-78
2023/05/23 21:51:47;;;;;;;17.90;3.13;;;;;10.50;101896.00;;;;10174298;28;20240;-78
2023/05/23 21:56:48;;;;;;;16.97;2.73;;;;;10.40;101893.00;;;;10161954;28;20256;-78
2023/05/23 22:01:50;;;;;;;16.17;2.40;;;;;10.30;101883.00;;;;10164367;28;20228;-77
2023/05/23 22:06:51;;;;;;;11.13;2.70;;;;;10.20;101895.00;;;;10168835;28;20271;-78
2023/05/23 22:11:53;;;;;;;12.13;3.00;;;;;10.10;101890.00;;;;10193150;28;20300;-76
2023/05/23 22:16:55;;;;;;;8.97;3.07;;;;;10.00;101901.00;;;;10175901;28;20221;-76
2023/05/23 22:21:56;;;;;;;11.97;2.90;;;;;10.00;101903.00;;;;10160116;28;20759;-76
2023/05/23 22:26:59;;;;;;;12.17;3.27;;;;;9.90;101905.00;;;;10176780;28;20213;-77
2023/05/23 22:32:00;;;;;;;11.67;2.60;;;;;9.80;101909.00;;;;10143331;28;20271;-76
2023/05/23 22:37:02;;;;;;;9.17;2.23;;;;;9.70;101905.00;;;;10175536;28;20220;-79
2023/05/23 22:42:04;;;;;;;10.03;2.33;;;;;9.70;101912.00;;;;10154181;28;20248;-78
2023/05/23 22:47:05;;;;;;;17.73;3.10;;;;;9.60;101915.00;;;;10127207;28;20439;-80
2023/05/23 22:52:07;;;;;;;9.23;2.60;;;;;9.50;101917.00;;;;10161556;28;20233;-77
2023/05/23 22:57:08;;;;;;;15.77;2.63;;;;;9.50;101917.00;;;;10178233;28;20217;-79
2023/05/23 23:02:10;;;;;;;9.33;2.23;;;;;9.40;101900.00;;;;10151284;28;21248;-79
2023/05/23 23:07:11;;;;;;;12.90;2.70;;;;;9.30;101900.00;;;;10175658;28;20225;-79
2023/05/23 23:12:13;;;;;;;7.67;2.27;;;;;9.30;101896.00;;;;10189396;28;20762;-78
2023/05/23 23:17:14;;;;;;;8.67;2.37;;;;;9.20;101902.00;;;;10179658;28;20355;-76
2023/05/23 23:22:17;;;;;;;9.63;2.53;;;;;9.10;101896.00;;;;10177558;28;20233;-77
2023/05/23 23:27:19;;;;;;;13.87;3.20;;;;;9.00;101894.00;;;;10159774;28;20228;-77
2023/05/23 23:32:20;;;;;;;14.63;3.07;;;;;9.00;101904.00;;;;10157162;28;20307;-76
2023/05/23 23:37:22;;;;;;;13.37;2.93;;;;;8.90;101896.00;;;;10175070;28;20224;-77
2023/05/23 23:42:23;;;;;;;10.63;3.70;;;;;8.80;101891.00;;;;10176126;28;20267;-77
2023/05/23 23:47:24;;;;;;;12.43;3.10;;;;;8.80;101898.00;;;;10184381;28;20224;-79
2023/05/23 23:52:26;;;;;;;15.63;3.20;;;;;8.70;101899.00;;;;10175985;28;20235;-79
2023/05/23 23:57:28;;;;;;;13.90;2.90;;;;;8.60;101898.00;;;;10187765;28;20217;-80
